Monte Toledo — CQRA — position and weather

sailwx.info

Track history (hours):
 
Tides and Currents Weather Stations Pressure Air Temp Water Temp Dewpoint Dewpoint Depression Visibility Wind Speed Wind Dir Waves Ship Positions

Monte Toledo

Last reported at 2015-Mar-30 07:08 UTC. Time now 2015-Apr-25 19:57 UTC.
Position N 07°57' W 015°05'.
Warning: this ship's position is 26 days out of date.

Length 274 m; draft 9 m.

Type: Tanker. MMSI: 255740000.

Date/timePositionNaut miles runAvg speedWind from/ knotsBaromVisibWave heightAir tempDewpointWater temp
2015-Mar-30 07:08N 07°57' W 015°05'7413.0
2015-Mar-30 01:27N 08°51' W 015°57'10413.2
2015-Mar-29 17:33N 10°06' W 017°09'  
2015-Mar-26 01:28N 27°45' W 013°53'1413.2
2015-Mar-26 00:27N 27°56' W 013°44'1313.1
2015-Mar-25 23:26N 28°06' W 013°34'  
2015-Mar-23 17:11N 35°57' W 005°35'6 9.8
2015-Mar-23 16:33N 35°59' W 005°28'8 8.2
2015-Mar-23 15:33N 36°07' W 005°23'3 2.6
2015-Mar-23 14:25N 36°09' W 005°25'0 0.2
2015-Mar-23 13:31N 36°09' W 005°24'0 0.1
2015-Mar-23 11:19N 36°09' W 005°25'0 0.0
2015-Mar-23 10:22N 36°09' W 005°25'0 0.0
2015-Mar-23 09:31N 36°09' W 005°25'0 0.0
2015-Mar-23 08:04N 36°09' W 005°25'0 0.1
2015-Mar-23 07:04N 36°09' W 005°25'0 0.2
2015-Mar-23 06:28N 36°09' W 005°24'0 0.1
2015-Mar-23 05:31N 36°09' W 005°25'0 0.0
2015-Mar-23 04:31N 36°09' W 005°25'0 0.0
2015-Mar-23 03:31N 36°09' W 005°25'0 0.1
2015-Mar-23 02:31N 36°09' W 005°24'0 0.0
2015-Mar-23 01:31N 36°09' W 005°24'0 0.2
2015-Mar-23 00:31N 36°09' W 005°25'0 0.1
2015-Mar-22 23:31N 36°09' W 005°25'0 0.1
2015-Mar-22 22:25N 36°09' W 005°25'0 0.0
2015-Mar-22 21:13N 36°09' W 005°25'0 0.0
2015-Mar-22 20:28N 36°09' W 005°25'0 0.2
2015-Mar-22 19:25N 36°09' W 005°25'0 0.0
2015-Mar-22 18:31N 36°09' W 005°25'0 0.0
2015-Mar-22 17:31N 36°09' W 005°25'0 0.1
2015-Mar-22 16:31N 36°09' W 005°24'0 0.0
2015-Mar-22 15:31N 36°09' W 005°24'0 0.1
2015-Mar-22 14:31N 36°09' W 005°24'0 0.1
2015-Mar-22 13:31N 36°09' W 005°24'0 0.0
2015-Mar-22 12:31N 36°09' W 005°24'0 0.1
2015-Mar-22 11:31N 36°09' W 005°24'0 0.2
2015-Mar-22 10:31N 36°09' W 005°25'0 0.1
2015-Mar-22 09:31N 36°09' W 005°25'0 0.1
2015-Mar-22 08:31N 36°09' W 005°25'0 0.0
2015-Mar-22 07:28N 36°09' W 005°25'0 0.1
2015-Mar-22 06:28N 36°09' W 005°25'0 0.1
2015-Mar-22 05:31N 36°09' W 005°25'0 0.1
2015-Mar-22 04:28N 36°09' W 005°25'0 0.0
2015-Mar-22 03:25N 36°09' W 005°25'0 0.1
2015-Mar-22 02:31N 36°09' W 005°24'0 0.1
2015-Mar-22 01:28N 36°09' W 005°24'0 0.1
2015-Mar-22 00:28N 36°09' W 005°25'0 0.1
2015-Mar-21 23:04N 36°09' W 005°25'0 0.1
2015-Mar-21 22:31N 36°09' W 005°25'0 0.1
2015-Mar-21 21:28N 36°09' W 005°25'0 0.1
2015-Mar-21 20:31N 36°09' W 005°25'0 0.1
2015-Mar-21 19:31N 36°09' W 005°25'0 0.0
2015-Mar-21 18:31N 36°09' W 005°25'0 0.0
2015-Mar-21 17:31N 36°09' W 005°25'0 0.1
2015-Mar-21 16:25N 36°09' W 005°25'0 0.0
2015-Mar-21 15:25N 36°09' W 005°25'0 0.0
2015-Mar-21 14:28N 36°09' W 005°25'0 0.1
2015-Mar-21 13:31N 36°09' W 005°25'0 0.0
2015-Mar-21 12:19N 36°09' W 005°25'0 0.0
2015-Mar-21 11:25N 36°09' W 005°25'0 0.1
2015-Mar-21 10:28N 36°09' W 005°25'0 0.0
2015-Mar-21 09:28N 36°09' W 005°25'0 0.0
2015-Mar-21 08:28N 36°09' W 005°25'0 0.2
2015-Mar-21 07:31N 36°09' W 005°25'0 0.1
2015-Mar-21 06:31N 36°09' W 005°24'0 0.1
2015-Mar-21 05:31N 36°09' W 005°25'0 0.0
2015-Mar-21 04:31N 36°09' W 005°25'0 0.1
2015-Mar-21 03:31N 36°09' W 005°24'1 0.6
2015-Mar-21 02:31N 36°10' W 005°25'0 0.1
2015-Mar-21 01:31N 36°10' W 005°25'0 0.1
2015-Mar-21 00:28N 36°10' W 005°25'0 0.1
2015-Mar-20 23:31N 36°10' W 005°25'0 0.0
2015-Mar-20 22:31N 36°10' W 005°25'0 0.1
2015-Mar-20 21:31N 36°10' W 005°25'0 0.1
2015-Mar-20 20:31N 36°10' W 005°25'0 0.0
2015-Mar-20 19:31N 36°10' W 005°25'0 0.0
2015-Mar-20 14:10N 36°10' W 005°25'  
Track history (hours):
 
Tides and Currents Weather Stations Pressure Air Temp Water Temp Dewpoint Dewpoint Depression Visibility Wind Speed Wind Dir Waves Ship Positions

Monte Toledo

Last reported at 2015-Mar-30 07:08 UTC. Time now 2015-Apr-25 19:57 UTC.
Position N 07°57' W 015°05'.
Warning: this ship's position is 26 days out of date.

Length 274 m; draft 9 m.

Type: Tanker. MMSI: 255740000.

Date/timePositionNaut miles runAvg speedWind from/ knotsBaromVisibWave heightAir tempDewpointWater temp
2015-Mar-30 07:08N 07°57' W 015°05'7413.0
2015-Mar-30 01:27N 08°51' W 015°57'10413.2
2015-Mar-29 17:33N 10°06' W 017°09'  
2015-Mar-26 01:28N 27°45' W 013°53'1413.2
2015-Mar-26 00:27N 27°56' W 013°44'1313.1
2015-Mar-25 23:26N 28°06' W 013°34'  
2015-Mar-23 17:11N 35°57' W 005°35'6 9.8
2015-Mar-23 16:33N 35°59' W 005°28'8 8.2
2015-Mar-23 15:33N 36°07' W 005°23'3 2.6
2015-Mar-23 14:25N 36°09' W 005°25'0 0.2
2015-Mar-23 13:31N 36°09' W 005°24'0 0.1
2015-Mar-23 11:19N 36°09' W 005°25'0 0.0
2015-Mar-23 10:22N 36°09' W 005°25'0 0.0
2015-Mar-23 09:31N 36°09' W 005°25'0 0.0
2015-Mar-23 08:04N 36°09' W 005°25'0 0.1
2015-Mar-23 07:04N 36°09' W 005°25'0 0.2
2015-Mar-23 06:28N 36°09' W 005°24'0 0.1
2015-Mar-23 05:31N 36°09' W 005°25'0 0.0
2015-Mar-23 04:31N 36°09' W 005°25'0 0.0
2015-Mar-23 03:31N 36°09' W 005°25'0 0.1
2015-Mar-23 02:31N 36°09' W 005°24'0 0.0
2015-Mar-23 01:31N 36°09' W 005°24'0 0.2
2015-Mar-23 00:31N 36°09' W 005°25'0 0.1
2015-Mar-22 23:31N 36°09' W 005°25'0 0.1
2015-Mar-22 22:25N 36°09' W 005°25'0 0.0
2015-Mar-22 21:13N 36°09' W 005°25'0 0.0
2015-Mar-22 20:28N 36°09' W 005°25'0 0.2
2015-Mar-22 19:25N 36°09' W 005°25'0 0.0
2015-Mar-22 18:31N 36°09' W 005°25'0 0.0
2015-Mar-22 17:31N 36°09' W 005°25'0 0.1
2015-Mar-22 16:31N 36°09' W 005°24'0 0.0
2015-Mar-22 15:31N 36°09' W 005°24'0 0.1
2015-Mar-22 14:31N 36°09' W 005°24'0 0.1
2015-Mar-22 13:31N 36°09' W 005°24'0 0.0
2015-Mar-22 12:31N 36°09' W 005°24'0 0.1
2015-Mar-22 11:31N 36°09' W 005°24'0 0.2
2015-Mar-22 10:31N 36°09' W 005°25'0 0.1
2015-Mar-22 09:31N 36°09' W 005°25'0 0.1
2015-Mar-22 08:31N 36°09' W 005°25'0 0.0
2015-Mar-22 07:28N 36°09' W 005°25'0 0.1
2015-Mar-22 06:28N 36°09' W 005°25'0 0.1
2015-Mar-22 05:31N 36°09' W 005°25'0 0.1
2015-Mar-22 04:28N 36°09' W 005°25'0 0.0
2015-Mar-22 03:25N 36°09' W 005°25'0 0.1
2015-Mar-22 02:31N 36°09' W 005°24'0 0.1
2015-Mar-22 01:28N 36°09' W 005°24'0 0.1
2015-Mar-22 00:28N 36°09' W 005°25'0 0.1
2015-Mar-21 23:04N 36°09' W 005°25'0 0.1
2015-Mar-21 22:31N 36°09' W 005°25'0 0.1
2015-Mar-21 21:28N 36°09' W 005°25'0 0.1
2015-Mar-21 20:31N 36°09' W 005°25'0 0.1
2015-Mar-21 19:31N 36°09' W 005°25'0 0.0
2015-Mar-21 18:31N 36°09' W 005°25'0 0.0
2015-Mar-21 17:31N 36°09' W 005°25'0 0.1
2015-Mar-21 16:25N 36°09' W 005°25'0 0.0
2015-Mar-21 15:25N 36°09' W 005°25'0 0.0
2015-Mar-21 14:28N 36°09' W 005°25'0 0.1
2015-Mar-21 13:31N 36°09' W 005°25'0 0.0
2015-Mar-21 12:19N 36°09' W 005°25'0 0.0
2015-Mar-21 11:25N 36°09' W 005°25'0 0.1
2015-Mar-21 10:28N 36°09' W 005°25'0 0.0
2015-Mar-21 09:28N 36°09' W 005°25'0 0.0
2015-Mar-21 08:28N 36°09' W 005°25'0 0.2
2015-Mar-21 07:31N 36°09' W 005°25'0 0.1
2015-Mar-21 06:31N 36°09' W 005°24'0 0.1
2015-Mar-21 05:31N 36°09' W 005°25'0 0.0
2015-Mar-21 04:31N 36°09' W 005°25'0 0.1
2015-Mar-21 03:31N 36°09' W 005°24'1 0.6
2015-Mar-21 02:31N 36°10' W 005°25'0 0.1
2015-Mar-21 01:31N 36°10' W 005°25'0 0.1
2015-Mar-21 00:28N 36°10' W 005°25'0 0.1
2015-Mar-20 23:31N 36°10' W 005°25'0 0.0
2015-Mar-20 22:31N 36°10' W 005°25'0 0.1
2015-Mar-20 21:31N 36°10' W 005°25'0 0.1
2015-Mar-20 20:31N 36°10' W 005°25'0 0.0
2015-Mar-20 19:31N 36°10' W 005°25'0 0.0
2015-Mar-20 14:10N 36°10' W 005°25'  

Dump ship's entire track history